Grisdale, Washington
Current Conditions -  °F | °C
As of 3:53 PM on Saturday 25 Oct 2014 (Local Time) from KSHN Reporting Station
Light Rain Light Rain  
Wind Chill: 13°   Ceiling: 2500
Heat Index: 13°   Visibility: 10mi
Dew Point: 11°   Wind: 15mph
Humidity: 87%   Direction: 130°SE
Pressure: 29.23"   Gusts: 21mph
Location:  47.555°N, 123.746°W
Report Text: KSHN 252253Z AUTO 13013G18KT 10SM -RA FEW020 BKN025 OVC038 13/11 A2923 RMK AO2 SLP898 P0000 T01330111 TSNO
Loading
Personal Weather Stations






























Interactive Weather Map
Tropical Storm Tracking
New forecast layout! Learn more

10-Day Weather Forecast

Advertisements
Track Severe Weather on mobile